Airfield :
LOGIN :

Register | Disclaimer

   EN    FR    IT 

 










Legend :    VFR   Marginal VFR   IFR   Intensive IFR   Very Intensive IFR
Visi :
Ceiling :
>= 8 km
>= 3000ft
5 to 8 km
1000 to 3000 ft
1500m to 5 km
500 to 1000 ft
800 to 1500m
200 to 500 ft
< 800m
< 200 ft
Symbols :   Thunderstorms  Fog  Heavy snow  Heavy precipitations  Wind > 20 kt
SIGMETs :     Misc.  Thunderstorms  Icing  Turbulence  Mountain Waves  Volcanic Ashes






- Airport Elevation : 268 ft
- IATA code : BFS


EGAA - Belfast Aldergrove

CURRENT METAR :
  • 221350Z AUTO 31005KT 9999 FEW019 SCT048 11/08 Q1020

EXPIRED METARs :
  • 221320Z AUTO 34007KT 310V020 9999 BKN016 BKN037 11/08 Q1020
  • 221250Z 33006KT 300V010 9999 SCT020 BKN028 11/08 Q1020
  • 221220Z AUTO 29009KT 9999 FEW024 BKN029 12/08 Q1020
  • 221150Z AUTO 29011KT 9999 BKN023 OVC030 12/07 Q1020
  • 221120Z AUTO 29012KT 9999 FEW020 BKN025 11/07 Q1019

TAF AMD TAF EGAA
Valid from the 22 at 13:00 until the 23 at 12:00 UTC


221311Z 2213/2312 29008KT 9999 FEW020 SCT040
PROB30
TEMPO 2213/2215 6000 SHRA
BECMG 2309/2312 19017G27KT



MET'MAP, your aeronautical weather chart ! - Copyright ORBIFLY December 2007 - Disclaimer

ORBIFLY MET'MAP TEAM :

Programming & Development : Alexandra Zaïnal
Concept & original design : Baudouin d'Aumeries
Assistance for programming : Marc-Olivier Méhu
Technical & hardware support : Manuel Goepfert

Contact : metmap@orbifly.com




SOURCES & CREDITS :

   NOAA